createdAt,value
2019-02-05T00:01:37.772Z,7.77
2019-02-05T00:04:07.533Z,7.67
2019-02-05T00:06:37.166Z,7.90
2019-02-05T00:09:11.279Z,7.73
2019-02-05T00:11:40.812Z,8.70
2019-02-05T00:14:10.354Z,8.07
2019-02-05T00:16:40.408Z,8.10
2019-02-05T00:19:10.122Z,8.00
2019-02-05T00:21:39.600Z,8.70
2019-02-05T00:24:09.341Z,9.27
2019-02-05T00:26:39.150Z,9.00
2019-02-05T00:29:08.579Z,9.87
2019-02-05T00:31:38.557Z,8.13
2019-02-05T00:34:08.349Z,9.43
2019-02-05T00:36:38.085Z,9.63
2019-02-05T00:39:09.303Z,10.87
2019-02-05T00:41:38.762Z,10.37
2019-02-05T00:44:08.204Z,10.40
2019-02-05T00:46:37.955Z,9.80
2019-02-05T00:49:07.384Z,9.83
2019-02-05T00:51:36.963Z,10.90
2019-02-05T00:54:06.835Z,9.10
2019-02-05T00:56:37.387Z,9.53
2019-02-05T00:59:07.742Z,11.40
2019-02-05T01:01:37.380Z,10.23
2019-02-05T01:04:07.053Z,10.00
2019-02-05T01:06:36.576Z,10.50
2019-02-05T01:09:10.027Z,10.33
2019-02-05T01:11:39.592Z,9.93
2019-02-05T01:14:09.072Z,11.20
2019-02-05T01:16:38.662Z,11.20
2019-02-05T01:19:08.495Z,11.07
2019-02-05T01:21:38.337Z,11.53
2019-02-05T01:24:07.793Z,11.17
2019-02-05T01:26:37.623Z,11.57
2019-02-05T01:29:08.257Z,13.20
2019-02-05T01:31:37.774Z,14.23
2019-02-05T01:34:07.338Z,10.50
2019-02-05T01:36:36.780Z,12.77
2019-02-05T01:39:08.036Z,10.93
2019-02-05T01:41:37.580Z,11.90
2019-02-05T01:44:07.057Z,11.43
2019-02-05T01:46:36.503Z,11.87
2019-02-05T01:49:06.072Z,12.30
2019-02-05T01:51:35.617Z,11.03
2019-02-05T01:54:05.072Z,11.00
2019-02-05T01:56:40.888Z,11.73
2019-02-05T01:59:05.953Z,12.60
2019-02-05T02:01:35.710Z,12.10
2019-02-05T02:04:05.477Z,10.93
2019-02-05T02:06:35.238Z,11.50
2019-02-05T02:09:06.172Z,12.57
2019-02-05T02:11:35.921Z,12.43
2019-02-05T02:14:06.794Z,11.77
2019-02-05T02:16:36.234Z,12.77
2019-02-05T02:19:05.933Z,12.70
2019-02-05T02:21:35.748Z,12.37
2019-02-05T02:24:05.657Z,13.13
2019-02-05T02:26:35.021Z,12.87
2019-02-05T02:29:04.869Z,12.67
2019-02-05T02:31:34.341Z,12.20
2019-02-05T02:34:04.197Z,12.97
2019-02-05T02:36:33.675Z,13.10
2019-02-05T02:39:04.729Z,13.57
2019-02-05T02:41:34.393Z,13.37
2019-02-05T02:44:04.264Z,13.53
2019-02-05T02:46:33.758Z,13.33
2019-02-05T02:49:03.291Z,13.83
2019-02-05T02:51:32.791Z,13.60
2019-02-05T02:54:02.224Z,13.70
2019-02-05T02:56:31.754Z,12.97
2019-02-05T02:59:01.506Z,13.10
2019-02-05T03:01:30.991Z,12.90
2019-02-05T03:04:00.796Z,13.40
2019-02-05T03:06:30.284Z,14.73
2019-02-05T03:09:00.362Z,14.23
2019-02-05T03:11:29.797Z,14.00
2019-02-05T03:13:59.558Z,13.80
2019-02-05T03:16:28.987Z,15.47
2019-02-05T03:18:58.782Z,14.60
2019-02-05T03:21:28.705Z,14.17
2019-02-05T03:23:58.170Z,14.43
2019-02-05T03:26:27.913Z,13.30
2019-02-05T03:28:57.386Z,13.37
2019-02-05T03:31:26.851Z,14.97
2019-02-05T03:33:56.631Z,13.53
2019-02-05T03:36:26.065Z,14.83
2019-02-05T03:38:56.254Z,15.23
2019-02-05T03:41:26.289Z,15.33
2019-02-05T03:43:55.749Z,13.53
2019-02-05T03:46:25.318Z,17.00
2019-02-05T03:48:56.113Z,14.53
2019-02-05T03:52:21.745Z,16.33
2019-02-05T03:55:18.236Z,14.20
2019-02-05T03:58:26.183Z,17.00
2019-02-05T04:01:24.546Z,14.23
2019-02-05T04:04:39.621Z,15.00
2019-02-05T04:07:27.561Z,13.43
2019-02-05T04:10:30.778Z,14.83
2019-02-05T04:14:05.428Z,14.20
2019-02-05T04:16:59.565Z,17.13
2019-02-05T04:20:09.340Z,14.97
2019-02-05T04:23:00.077Z,14.90
2019-02-05T04:26:06.160Z,15.27
2019-02-05T04:29:37.993Z,14.27
2019-02-05T04:32:42.089Z,14.83
2019-02-05T04:35:46.226Z,14.57
2019-02-05T04:38:40.900Z,14.23
2019-02-05T04:41:39.312Z,14.50
2019-02-05T04:44:59.064Z,17.50
2019-02-05T04:47:58.962Z,13.40
2019-02-05T04:51:21.620Z,13.87
2019-02-05T04:54:12.311Z,14.07
2019-02-05T04:57:08.285Z,17.53
2019-02-05T05:00:06.242Z,14.30
2019-02-05T05:02:58.461Z,13.70
2019-02-05T05:06:07.602Z,14.53
2019-02-05T05:09:06.430Z,13.43
2019-02-05T05:11:36.237Z,14.37
2019-02-05T05:14:06.278Z,14.80
2019-02-05T05:16:35.757Z,15.03
2019-02-05T05:19:05.572Z,16.07
2019-02-05T05:21:35.153Z,15.90
2019-02-05T05:24:05.100Z,13.57
2019-02-05T05:26:34.986Z,14.37
2019-02-05T05:29:05.137Z,14.27
2019-02-05T05:31:34.676Z,14.33
2019-02-05T05:34:04.476Z,13.57
2019-02-05T05:36:33.939Z,13.60
2019-02-05T05:39:05.025Z,14.17
2019-02-05T05:41:34.513Z,13.90
2019-02-05T05:44:03.988Z,14.30
2019-02-05T05:46:33.446Z,14.60
2019-02-05T05:49:03.298Z,13.43
2019-02-05T05:51:32.925Z,15.03
2019-02-05T05:54:03.408Z,13.30
2019-02-05T05:56:32.899Z,14.07
2019-02-05T05:59:02.719Z,12.20
2019-02-05T06:01:32.523Z,15.50
2019-02-05T06:04:01.965Z,14.17
2019-02-05T06:06:31.426Z,13.87
2019-02-05T06:09:01.282Z,14.17
2019-02-05T06:11:30.733Z,13.53
2019-02-05T06:14:00.206Z,12.90
2019-02-05T06:16:29.648Z,13.50
2019-02-05T06:18:59.112Z,17.47
2019-02-05T06:21:28.571Z,13.57
2019-02-05T06:23:58.036Z,14.27
2019-02-05T06:26:27.784Z,13.17
2019-02-05T06:28:57.242Z,14.17
2019-02-05T06:31:27.049Z,13.27
2019-02-05T06:33:56.520Z,14.17
2019-02-05T06:36:25.969Z,14.63
2019-02-05T06:38:55.449Z,14.97
2019-02-05T06:41:25.578Z,14.17
2019-02-05T06:43:55.065Z,15.00
2019-02-05T06:46:24.519Z,14.60
2019-02-05T06:48:54.298Z,14.67
2019-02-05T06:51:24.119Z,15.70
2019-02-05T06:53:53.609Z,14.17
2019-02-05T06:56:23.357Z,14.50
2019-02-05T06:58:53.132Z,14.70
2019-02-05T07:01:22.634Z,14.07
2019-02-05T07:03:52.072Z,14.63
2019-02-05T07:06:21.529Z,13.90
2019-02-05T07:08:50.953Z,14.17
2019-02-05T07:11:21.178Z,14.93
2019-02-05T07:13:50.699Z,14.67
2019-02-05T07:16:20.158Z,14.50
2019-02-05T07:18:49.893Z,14.40
2019-02-05T07:21:19.353Z,14.57
2019-02-05T07:23:48.842Z,13.87
2019-02-05T07:26:19.217Z,14.07
2019-02-05T07:28:58.023Z,15.03
2019-02-05T07:31:19.861Z,15.37
2019-02-05T07:33:50.305Z,13.83
2019-02-05T07:36:20.134Z,13.60
2019-02-05T07:38:50.381Z,14.63
2019-02-05T07:41:19.841Z,14.17
2019-02-05T07:43:49.686Z,16.30
2019-02-05T07:46:19.137Z,16.63
2019-02-05T07:48:48.573Z,16.60
2019-02-05T07:51:18.334Z,14.07
2019-02-05T07:53:48.605Z,13.77
2019-02-05T07:56:18.109Z,14.07
2019-02-05T07:58:47.556Z,13.53
2019-02-05T08:01:17.679Z,13.30
2019-02-05T08:03:47.545Z,14.40
2019-02-05T08:06:16.969Z,14.53
2019-02-05T08:08:46.411Z,14.03
2019-02-05T08:11:15.842Z,15.13
2019-02-05T08:13:45.289Z,14.00
2019-02-05T08:16:15.073Z,14.67
2019-02-05T08:18:45.191Z,13.67
2019-02-05T08:21:14.613Z,16.93
2019-02-05T08:23:44.224Z,14.00
2019-02-05T08:26:13.993Z,14.57
2019-02-05T08:28:43.465Z,13.47
2019-02-05T08:31:12.889Z,13.27
2019-02-05T08:33:42.340Z,16.70
2019-02-05T08:36:11.769Z,14.17
2019-02-05T08:38:41.197Z,15.73
2019-02-05T08:41:11.034Z,14.00
2019-02-05T08:43:40.553Z,13.37
2019-02-05T08:46:10.368Z,13.93
2019-02-05T08:48:40.190Z,14.87
2019-02-05T08:51:10.457Z,14.50
2019-02-05T08:53:40.218Z,15.13
2019-02-05T08:56:10.024Z,12.90
2019-02-05T08:58:39.737Z,13.50
2019-02-05T09:01:09.221Z,13.13
2019-02-05T09:03:38.681Z,15.20
2019-02-05T09:06:08.210Z,17.00
2019-02-05T09:08:37.945Z,14.27
2019-02-05T09:11:07.613Z,13.27
2019-02-05T09:13:37.413Z,17.37
2019-02-05T09:16:06.862Z,13.33
2019-02-05T09:18:36.279Z,13.40
2019-02-05T09:21:05.732Z,13.97
2019-02-05T09:23:35.561Z,13.17
2019-02-05T09:26:05.353Z,13.57
2019-02-05T09:28:34.797Z,13.10
2019-02-05T09:31:04.942Z,13.83
2019-02-05T09:33:34.385Z,14.50
2019-02-05T09:36:03.801Z,14.97
2019-02-05T09:38:33.265Z,13.97
2019-02-05T09:41:02.698Z,15.10
2019-02-05T09:43:32.160Z,14.73
2019-02-05T09:46:02.722Z,15.83
2019-02-05T09:48:32.505Z,14.53
2019-02-05T09:51:01.933Z,15.70
2019-02-05T09:53:31.832Z,14.10
2019-02-05T09:56:01.647Z,15.20
2019-02-05T09:58:31.105Z,15.80
2019-02-05T10:01:00.857Z,15.77
2019-02-05T10:03:30.657Z,14.90
2019-02-05T10:06:00.449Z,15.23
2019-02-05T10:08:29.909Z,15.27
2019-02-05T10:10:59.340Z,14.90
2019-02-05T10:13:28.792Z,18.97
2019-02-05T10:15:58.221Z,13.53
2019-02-05T10:18:27.677Z,14.70
2019-02-05T10:20:57.105Z,16.03
2019-02-05T10:23:26.565Z,15.13
2019-02-05T10:25:56.014Z,15.00
2019-02-05T10:28:25.745Z,16.97
2019-02-05T10:30:55.481Z,18.10
2019-02-05T10:33:25.241Z,15.67
2019-02-05T10:35:54.725Z,15.20
2019-02-05T10:38:24.163Z,15.93
2019-02-05T10:40:54.486Z,16.97
2019-02-05T10:43:24.046Z,16.63
2019-02-05T10:45:53.551Z,15.97
2019-02-05T10:48:23.478Z,16.27
2019-02-05T10:50:53.047Z,18.43
2019-02-05T10:53:22.513Z,15.87
2019-02-05T10:55:52.330Z,16.37
2019-02-05T10:58:21.819Z,18.70
2019-02-05T11:00:51.943Z,19.40
2019-02-05T11:03:22.043Z,19.97
2019-02-05T11:05:51.501Z,18.40
2019-02-05T11:08:20.961Z,16.33
2019-02-05T11:10:50.389Z,16.90
2019-02-05T11:13:20.201Z,16.13
2019-02-05T11:15:50.721Z,15.17
2019-02-05T11:18:20.221Z,16.47
2019-02-05T11:20:49.938Z,15.37
2019-02-05T11:23:19.416Z,16.70
2019-02-05T11:25:49.148Z,16.90
2019-02-05T11:28:18.634Z,17.13
2019-02-05T11:30:48.057Z,17.07
2019-02-05T11:33:17.497Z,17.20
2019-02-05T11:35:46.953Z,16.97
2019-02-05T11:38:16.397Z,16.80
2019-02-05T11:40:46.310Z,18.07
2019-02-05T11:43:15.733Z,17.00
2019-02-05T11:45:45.510Z,17.83
2019-02-05T11:48:17.937Z,16.83
2019-02-05T11:50:47.700Z,18.27
2019-02-05T11:53:17.133Z,17.57
2019-02-05T11:55:46.680Z,17.80
2019-02-05T11:58:16.952Z,17.63
2019-02-05T12:01:14.367Z,16.80
2019-02-05T12:03:43.796Z,17.50
2019-02-05T12:06:13.457Z,20.50
2019-02-05T12:08:42.939Z,16.90
2019-02-05T12:11:12.814Z,18.87
2019-02-05T12:13:44.462Z,17.10
2019-02-05T12:16:13.920Z,19.57
2019-02-05T12:18:45.526Z,16.63
2019-02-05T12:21:15.000Z,18.67
2019-02-05T12:23:44.584Z,17.90
2019-02-05T12:26:14.068Z,17.87
2019-02-05T12:28:43.564Z,22.67
2019-02-05T12:31:13.396Z,16.97
2019-02-05T12:33:43.174Z,18.17
2019-02-05T12:36:12.608Z,18.63
2019-02-05T12:38:45.141Z,21.27
2019-02-05T12:41:14.568Z,17.03
2019-02-05T12:43:44.375Z,19.33
2019-02-05T12:46:14.228Z,17.83
2019-02-05T12:48:43.676Z,16.63
2019-02-05T12:51:13.224Z,19.83
2019-02-05T12:53:42.677Z,19.27
2019-02-05T12:56:12.265Z,17.33
2019-02-05T12:58:41.701Z,18.13
2019-02-05T13:01:11.457Z,18.80
2019-02-05T13:03:40.878Z,17.13
2019-02-05T13:06:10.333Z,18.07
2019-02-05T13:08:39.765Z,17.37
2019-02-05T13:11:09.545Z,16.20
2019-02-05T13:13:38.977Z,18.20
2019-02-05T13:16:08.761Z,16.93
2019-02-05T13:18:38.985Z,17.53
2019-02-05T13:21:08.695Z,16.43
2019-02-05T13:23:38.713Z,16.13
2019-02-05T13:26:08.482Z,17.43
2019-02-05T13:28:37.987Z,18.07
2019-02-05T13:31:08.408Z,18.63
2019-02-05T13:33:37.944Z,17.10
2019-02-05T13:36:11.373Z,17.53
2019-02-05T13:38:40.801Z,16.30
2019-02-05T13:41:10.225Z,19.43
2019-02-05T13:43:39.700Z,16.83
2019-02-05T13:46:09.238Z,17.00
2019-02-05T13:48:38.685Z,16.27
2019-02-05T13:51:08.106Z,17.50
2019-02-05T13:53:37.642Z,16.03
2019-02-05T13:56:07.808Z,16.83
2019-02-05T13:58:37.774Z,16.57
2019-02-05T14:01:19.363Z,17.03
2019-02-05T14:03:38.644Z,16.57
2019-02-05T14:06:08.066Z,16.40
2019-02-05T14:08:39.466Z,16.63
2019-02-05T14:11:08.621Z,18.13
2019-02-05T14:13:38.108Z,16.80
2019-02-05T14:16:07.762Z,17.27
2019-02-05T14:18:37.192Z,17.03
2019-02-05T14:21:06.962Z,16.30
2019-02-05T14:23:36.577Z,16.50
2019-02-05T14:26:06.485Z,17.17
2019-02-05T14:28:36.299Z,18.00
2019-02-05T14:31:05.988Z,15.57
2019-02-05T14:33:36.336Z,17.30
2019-02-05T14:36:06.969Z,17.00
2019-02-05T14:38:36.398Z,17.40
2019-02-05T14:41:06.575Z,17.73
2019-02-05T14:43:36.089Z,17.60
2019-02-05T14:46:06.408Z,17.43
2019-02-05T14:48:36.117Z,20.30
2019-02-05T14:51:06.074Z,18.03
2019-02-05T14:53:35.765Z,16.80
2019-02-05T14:56:05.981Z,18.33
2019-02-05T14:58:35.426Z,18.03
2019-02-05T15:01:05.089Z,16.00
2019-02-05T15:03:35.196Z,17.40
2019-02-05T15:06:05.013Z,17.73
2019-02-05T15:08:34.542Z,18.33
2019-02-05T15:11:03.965Z,17.70
2019-02-05T15:13:33.450Z,18.57
2019-02-05T15:16:02.873Z,18.60
2019-02-05T15:18:32.615Z,17.63
2019-02-05T15:21:02.040Z,17.87
2019-02-05T15:23:32.286Z,17.13
2019-02-05T15:26:02.200Z,17.57
2019-02-05T15:28:31.829Z,17.23
2019-02-05T15:31:01.314Z,16.97
2019-02-05T15:33:40.572Z,16.47
2019-02-05T15:36:20.190Z,15.50
2019-02-05T15:38:50.090Z,16.83
2019-02-05T15:41:20.247Z,16.93
2019-02-05T15:43:50.020Z,14.67
2019-02-05T15:46:19.453Z,17.57
2019-02-05T15:48:49.429Z,17.20
2019-02-05T15:51:19.138Z,18.20
2019-02-05T15:53:48.957Z,16.70
2019-02-05T15:56:18.785Z,18.07
2019-02-05T15:58:48.213Z,17.47
2019-02-05T16:01:17.673Z,18.97
2019-02-05T16:03:47.402Z,16.50
2019-02-05T16:06:16.855Z,17.10
2019-02-05T16:08:46.429Z,16.27
2019-02-05T16:11:15.889Z,16.50
2019-02-05T16:13:45.622Z,17.30
2019-02-05T16:16:15.441Z,17.70
2019-02-05T16:18:45.169Z,16.70
2019-02-05T16:21:14.625Z,16.20
2019-02-05T16:23:44.049Z,16.83
2019-02-05T16:26:13.565Z,17.80
2019-02-05T16:28:42.984Z,17.03
2019-02-05T16:31:12.544Z,17.23
2019-02-05T16:33:42.570Z,16.30
2019-02-05T16:36:12.974Z,17.00
2019-02-05T16:38:42.425Z,16.40
2019-02-05T16:41:11.936Z,16.13
2019-02-05T16:43:41.439Z,15.83
2019-02-05T16:46:10.851Z,15.47
2019-02-05T16:48:40.708Z,16.23
2019-02-05T16:51:10.442Z,15.63
2019-02-05T16:53:39.980Z,16.63
2019-02-05T16:56:09.782Z,15.23
2019-02-05T16:58:39.526Z,15.50
2019-02-05T17:01:08.969Z,17.50
2019-02-05T17:03:38.805Z,16.20
2019-02-05T17:06:08.633Z,15.73
2019-02-05T17:08:38.169Z,15.37
2019-02-05T17:11:07.718Z,15.67
2019-02-05T17:13:37.541Z,16.47
2019-02-05T17:16:07.005Z,17.50
2019-02-05T17:18:36.697Z,15.70
2019-02-05T17:21:06.894Z,16.50
2019-02-05T17:23:37.056Z,16.10
2019-02-05T17:26:06.641Z,16.27
2019-02-05T17:28:36.473Z,16.17
2019-02-05T17:31:05.878Z,16.03
2019-02-05T17:33:35.296Z,15.73
2019-02-05T17:36:05.267Z,16.70
2019-02-05T17:38:34.701Z,17.73
2019-02-05T17:41:05.172Z,15.97
2019-02-05T17:43:34.618Z,16.77
2019-02-05T17:46:05.849Z,17.23
2019-02-05T17:48:35.481Z,19.17
2019-02-05T17:51:05.109Z,16.47
2019-02-05T17:53:34.600Z,16.00
2019-02-05T17:56:04.140Z,16.40
2019-02-05T17:58:33.941Z,15.40
2019-02-05T18:01:14.972Z,17.40
2019-02-05T18:03:44.753Z,15.50
2019-02-05T18:06:14.182Z,18.67
2019-02-05T18:08:43.750Z,18.47
2019-02-05T18:11:13.249Z,15.10
2019-02-05T18:13:43.000Z,16.93
2019-02-05T18:16:15.335Z,16.67
2019-02-05T18:18:44.889Z,16.47
2019-02-05T18:21:14.237Z,16.47
2019-02-05T18:23:43.774Z,15.80
2019-02-05T18:26:13.297Z,16.67
2019-02-05T18:28:43.110Z,18.07
2019-02-05T18:31:12.921Z,18.60
2019-02-05T18:33:42.674Z,16.67
2019-02-05T18:36:12.126Z,16.43
2019-02-05T18:38:41.722Z,19.07
2019-02-05T18:41:11.295Z,17.23
2019-02-05T18:43:40.770Z,16.93
2019-02-05T18:46:12.677Z,16.67
2019-02-05T18:48:42.021Z,21.57
2019-02-05T18:51:11.460Z,20.17
2019-02-05T18:53:40.893Z,17.23
2019-02-05T18:56:10.722Z,17.70
2019-02-05T18:58:40.259Z,16.80
2019-02-05T19:01:10.209Z,19.13
2019-02-05T19:03:40.349Z,17.87
2019-02-05T19:06:09.996Z,17.43
2019-02-05T19:08:42.378Z,17.73
2019-02-05T19:11:12.869Z,19.50
2019-02-05T19:13:42.883Z,18.27
2019-02-05T19:16:14.554Z,19.60
2019-02-05T19:18:44.648Z,19.17
2019-02-05T19:21:14.496Z,16.87
2019-02-05T19:23:44.524Z,17.83
2019-02-05T19:26:38.380Z,19.07
2019-02-05T19:29:18.294Z,21.93
2019-02-05T19:31:46.237Z,17.70
2019-02-05T19:34:11.292Z,21.63
2019-02-05T19:36:41.473Z,22.77
2019-02-05T19:39:11.076Z,19.37
2019-02-05T19:41:40.417Z,18.73
2019-02-05T19:44:10.262Z,19.27
2019-02-05T19:47:07.757Z,16.47
2019-02-05T19:49:43.544Z,16.63
2019-02-05T19:52:12.988Z,19.90
2019-02-05T19:54:42.408Z,16.27
2019-02-05T19:57:11.857Z,17.73
2019-02-05T19:59:41.673Z,17.40
2019-02-05T20:02:11.101Z,15.90
2019-02-05T20:04:40.729Z,16.33
2019-02-05T20:07:10.199Z,15.80
2019-02-05T20:09:39.657Z,17.20
2019-02-05T20:12:09.043Z,15.83
2019-02-05T20:14:38.801Z,22.23
2019-02-05T20:17:08.708Z,16.83
2019-02-05T20:19:38.546Z,17.90
2019-02-05T20:22:07.965Z,16.13
2019-02-05T20:24:37.509Z,15.07
2019-02-05T20:27:07.093Z,16.60
2019-02-05T20:29:36.464Z,17.57
2019-02-05T20:32:06.201Z,15.57
2019-02-05T20:34:35.766Z,15.83
2019-02-05T20:37:05.330Z,17.03
2019-02-05T20:39:36.720Z,17.33
2019-02-05T20:42:06.256Z,14.20
2019-02-05T20:44:36.041Z,17.87
2019-02-05T20:47:05.911Z,19.87
2019-02-05T20:49:35.673Z,17.00
2019-02-05T20:52:05.473Z,16.27
2019-02-05T20:54:34.904Z,16.33
2019-02-05T20:57:04.533Z,14.93
2019-02-05T20:59:34.023Z,15.07
2019-02-05T21:02:03.479Z,18.23
2019-02-05T21:04:35.404Z,16.63
2019-02-05T21:07:04.402Z,15.47
2019-02-05T21:09:34.340Z,15.77
2019-02-05T21:12:03.805Z,15.70
2019-02-05T21:14:33.247Z,16.20
2019-02-05T21:17:02.703Z,15.00
2019-02-05T21:19:32.910Z,14.60
2019-02-05T21:22:02.406Z,14.80
2019-02-05T21:24:31.836Z,16.07
2019-02-05T21:27:01.275Z,16.07
2019-02-05T21:29:31.086Z,14.87
2019-02-05T21:32:00.519Z,16.03
2019-02-05T21:34:30.385Z,16.63
2019-02-05T21:37:00.168Z,15.73
2019-02-05T21:39:29.973Z,16.30
2019-02-05T21:41:59.496Z,15.10
2019-02-05T21:44:28.996Z,17.53
2019-02-05T21:46:58.505Z,15.67
2019-02-05T21:49:28.082Z,14.47
2019-02-05T21:51:57.560Z,15.27
2019-02-05T21:54:27.013Z,15.90
2019-02-05T21:56:56.480Z,16.10
2019-02-05T21:59:25.918Z,16.10
2019-02-05T22:01:55.665Z,15.37
2019-02-05T22:04:27.247Z,14.37
2019-02-05T22:06:56.612Z,16.77
2019-02-05T22:09:26.021Z,14.90
2019-02-05T22:11:55.480Z,18.60
2019-02-05T22:14:24.944Z,18.57
2019-02-05T22:16:54.395Z,16.43
2019-02-05T22:19:25.508Z,15.47
2019-02-05T22:21:55.010Z,13.63
2019-02-05T22:24:24.468Z,15.00
2019-02-05T22:26:54.193Z,14.77
2019-02-05T22:29:23.653Z,15.23
2019-02-05T22:31:53.080Z,14.93
2019-02-05T22:34:22.751Z,14.07
2019-02-05T22:36:52.517Z,13.30
2019-02-05T22:39:22.378Z,14.03
2019-02-05T22:41:51.837Z,13.03
2019-02-05T22:44:21.365Z,11.67
2019-02-05T22:46:51.481Z,12.60
2019-02-05T22:49:21.005Z,13.40
2019-02-05T22:51:50.572Z,14.43
2019-02-05T22:54:20.337Z,13.03
2019-02-05T22:56:50.205Z,12.93
2019-02-05T22:59:19.950Z,14.10
2019-02-05T23:02:00.653Z,11.07
2019-02-05T23:05:21.935Z,12.27
2019-02-05T23:07:51.590Z,12.23
2019-02-05T23:11:03.158Z,12.23
2019-02-05T23:13:25.052Z,11.70
2019-02-05T23:15:54.801Z,11.27
2019-02-05T23:18:24.616Z,11.30
2019-02-05T23:20:54.232Z,11.73
2019-02-05T23:23:23.818Z,11.50
2019-02-05T23:25:53.260Z,11.23
2019-02-05T23:28:22.733Z,11.07
2019-02-05T23:30:52.561Z,10.90
2019-02-05T23:33:22.036Z,11.33
2019-02-05T23:35:52.364Z,11.00
2019-02-05T23:38:29.233Z,11.43
2019-02-05T23:40:53.222Z,11.57
2019-02-05T23:43:22.653Z,10.57
2019-02-05T23:46:01.317Z,13.20
2019-02-05T23:48:23.508Z,10.43
2019-02-05T23:50:53.309Z,10.67
2019-02-05T23:53:23.149Z,11.30
2019-02-05T23:55:52.732Z,10.50
2019-02-05T23:58:22.270Z,12.93
